Latest Weather Observations for Orange Airport

IDN60801

Issued at 6:05 pm EST Tuesday 23 September 2014 (issued every 30 minutes, with the page automatically refreshed every 10 minutes)

About weather observations | Map of weather stations | Latest weather observations for NSW | Other Formats
Station Details ID: 063303 Name: ORANGE AIRPORT AWS Lat: -33.38 Lon: 149.13 Height: 947.4 m
Data from the previous 72 hours. | See also: Recent months at Orange Airport
Date/Time
EST
Temp
°C
App
Temp
°C
Dew
Point
Rel
Hum
%
Delta-T
°C
Wind Press
QNH
hPa
Press
MSL
hPa
Rain
since 9 am
mm
Dir
 
Spd
km/h
Gust
km/h
Spd
kts
Gust
kts
23/06:00pm 14.1 12.0 -0.7 36 6.4 ENE 0 0 0 0 1026.2 1025.8 0.0
23/05:30pm 16.1 12.8 -0.2 33 7.3 ENE 7 9 4 5 1025.9 1025.5 0.0
23/05:00pm 17.1 13.6 -1.5 28 8.2 NE 7 9 4 5 1025.9 1025.5 0.0
23/04:30pm 17.6 13.1 -3.2 24 8.9 ENE 11 15 6 8 1025.8 1025.4 0.0
23/04:00pm 17.7 13.1 -1.0 28 8.3 ENE 13 17 7 9 1025.8 1025.4 0.0
23/03:30pm 17.7 13.9 -0.5 29 8.2 E 9 15 5 8 1025.9 1025.5 0.0
23/03:00pm 18.2 14.6 0.4 30 8.2 ENE 9 17 5 9 1026.1 1025.7 0.0
23/02:30pm 18.0 14.0 0.6 31 8.1 ENE 11 17 6 9 1026.3 1025.9 0.0
23/02:00pm 17.9 14.0 1.4 33 7.7 E 11 17 6 9 1026.6 1026.3 0.0
23/01:30pm 17.9 15.1 1.8 34 7.6 E 6 11 3 6 1027.1 1026.7 0.0
23/01:00pm 17.6 15.2 4.2 41 6.6 SSE 6 9 3 5 1027.5 1027.2 0.0
23/12:30pm 17.3 14.5 2.9 38 7.0 NNE 7 13 4 7 1027.9 1027.5 0.0
23/12:00pm 16.7 14.3 2.3 38 6.8 ENE 4 11 2 6 1028.3 1028.0 0.0
23/11:30am 16.3 13.5 2.0 38 6.7 E 6 9 3 5 1028.7 1028.4 0.0
23/11:00am 15.6 13.0 3.1 43 5.9 ENE 6 13 3 7 1029.2 1028.8 0.0
23/10:30am 15.1 11.9 3.0 44 5.8 ENE 9 15 5 8 1029.7 1029.4 0.0
23/10:00am 14.5 11.7 3.3 47 5.3 NE 7 13 4 7 1029.9 1029.6 0.0
23/09:30am 13.9 10.6 4.8 54 4.5 ENE 11 13 6 7 1030.0 1029.7 0.0
23/09:00am 13.3 10.2 5.5 59 3.8 NE 11 15 6 8 1030.4 1030.1 0.0
23/08:30am 12.3 9.5 6.8 69 2.8 ENE 11 13 6 7 1030.4 1030.1 0.0
23/08:00am 10.7 7.9 6.8 77 1.9 ENE 11 13 6 7 1030.3 1030.0 0.0
23/07:30am 8.9 6.9 6.9 87 1.0 E 7 11 4 6 1030.0 1029.7 0.0
23/07:00am 5.5 4.3 4.5 93 0.5 CALM 0 0 0 0 1030.0 1029.7 0.0
23/06:30am 0.7 -1.3 -0.4 92 0.4 CALM 0 0 0 0 1029.7 1029.4 0.0
23/06:00am 2.3 0.5 1.3 93 0.4 ESE 0 0 0 0 1029.8 1029.5 0.0
23/05:30am 2.1 0.3 1.1 93 0.4 CALM 0 0 0 0 1029.7 1029.4 0.0
23/05:00am 1.7 -0.2 0.5 92 0.5 CALM 0 0 0 0 1029.6 1029.3 0.0
23/04:30am 3.1 1.4 2.1 93 0.4 CALM 0 0 0 0 1029.4 1029.1 0.0
23/04:00am 1.9 0.0 0.3 89 0.6 CALM 0 0 0 0 1029.3 1029.0 0.0
23/03:30am 4.1 2.6 3.1 93 0.4 CALM 0 0 0 0 1029.3 1029.0 0.0
23/03:00am 1.0 -1.1 -0.5 90 0.6 CALM 0 0 0 0 1029.2 1028.8 0.0
23/02:30am 3.5 1.6 0.6 81 1.2 CALM 0 0 0 0 1029.4 1029.1 0.0
23/02:00am 5.9 4.3 2.7 80 1.4 CALM 0 0 0 0 1029.7 1029.4 0.0
23/01:30am 6.2 3.6 3.2 81 1.3 ESE 6 6 3 3 1029.8 1029.5 0.0
23/01:00am 4.5 1.6 1.4 80 1.3 ESE 6 7 3 4 1029.9 1029.6 0.0
23/12:30am 5.9 4.2 2.0 76 1.7 CALM 0 0 0 0 1030.0 1029.7 0.0
23/12:00am 6.9 4.2 2.4 73 2.0 ESE 6 7 3 4 1030.0 1029.7 0.0
 
Date/Time
EST
Temp
°C
App
Temp
°C
Dew
Point
Rel
Hum
%
Delta-T
°C
Wind Press
QNH
hPa
Press
MSL
hPa
Rain
since 9 am
mm
Dir
 
Spd
km/h
Gust
km/h
Spd
kts
Gust
kts
22/11:30pm 6.6 3.6 2.3 74 1.9 ESE 7 9 4 5 1030.0 1029.7 0.0
22/11:00pm 4.6 1.2 1.8 82 1.2 SE 9 9 5 5 1030.2 1029.9 0.0
22/10:30pm 5.3 3.7 2.5 82 1.2 CALM 0 0 0 0 1030.3 1030.0 0.0
22/10:00pm 5.4 3.7 1.7 77 1.6 CALM 0 0 0 0 1030.4 1030.1 0.0
22/09:30pm 5.5 2.7 2.0 78 1.5 SSE 6 9 3 5 1030.5 1030.2 0.0
22/09:00pm 5.7 2.1 0.9 71 2.0 S 9 9 5 5 1030.2 1029.9 0.0
22/08:30pm 6.1 2.3 2.0 75 1.8 S 11 13 6 7 1030.2 1029.9 0.0
22/08:00pm 6.1 4.3 0.9 69 2.2 CALM 0 0 0 0 1029.8 1029.5 0.0
22/07:30pm 8.5 6.6 0.7 58 3.3 CALM 0 6 0 3 1029.6 1029.3 0.0
22/07:00pm 8.8 7.0 1.0 58 3.3 CALM 0 0 0 0 1029.3 1029.0 0.0
22/06:30pm 11.0 9.0 -0.2 46 4.8 CALM 0 0 0 0 1029.1 1028.7 0.0
22/06:00pm 12.3 10.3 0.1 43 5.3 CALM 0 0 0 0 1028.7 1028.4 0.0
22/05:30pm 14.4 12.2 -1.2 34 6.8 CALM 0 0 0 0 1028.6 1028.3 0.0
22/05:00pm 14.9 11.7 -0.4 35 6.7 ENE 6 9 3 5 1028.4 1028.1 0.0
22/04:30pm 15.0 11.5 -1.1 33 7.0 ESE 7 13 4 7 1028.5 1028.2 0.0
22/04:00pm 15.2 11.1 -2.7 29 7.5 SE 9 17 5 9 1028.5 1028.2 0.0
22/03:30pm 15.3 12.0 -0.1 35 6.9 SSE 7 15 4 8 1028.6 1028.3 0.0
22/03:00pm 15.2 12.0 0.6 37 6.6 E 7 11 4 6 1028.8 1028.5 0.0
22/02:30pm 15.2 11.8 1.7 40 6.3 E 9 17 5 9 1029.1 1028.7 0.0
22/02:00pm 15.0 11.4 -2.0 31 7.2 ESE 7 11 4 6 1029.3 1029.0 0.0
22/01:30pm 15.0 11.6 -0.7 34 6.9 E 7 13 4 7 1029.6 1029.3 0.0
22/01:00pm 14.9 12.1 -0.4 35 6.7 SSW 4 13 2 7 1029.9 1029.6 0.0
22/12:30pm 14.8 11.7 0.3 37 6.5 NE 6 9 3 5 1030.4 1030.1 0.0
22/12:00pm 13.9 10.0 0.9 41 5.8 NE 11 17 6 9 1030.9 1030.6 0.0
22/11:30am 13.2 9.1 4.1 54 4.4 ENE 15 20 8 11 1031.3 1031.0 0.0
22/11:00am 13.1 9.9 5.3 59 3.8 ENE 11 19 6 10 1031.6 1031.3 0.0
22/10:30am 12.1 8.6 3.3 55 4.1 NE 11 19 6 10 1031.9 1031.6 0.0
22/10:00am 11.6 8.0 5.0 64 3.2 NE 13 17 7 9 1032.1 1031.9 0.0
22/09:30am 10.4 6.9 5.4 71 2.4 NE 13 17 7 9 1032.2 1032.0 0.0
22/09:00am 9.9 6.7 7.0 82 1.4 ENE 13 19 7 10 1032.1 1031.9 0.0
22/08:30am 8.8 5.1 6.2 84 1.3 ENE 15 20 8 11 1032.1 1031.9 0.0
22/08:00am 8.1 4.2 6.9 92 0.6 NE 17 24 9 13 1031.8 1031.5 0.0
22/07:35am 7.0 3.6 5.9 93 0.5 NE 13 17 7 9 1031.6 1031.3 0.0
22/07:30am 6.3 3.5 5.3 93 0.5 NE 9 13 5 7 1031.5 1031.2 0.0
22/07:00am 3.7 2.1 2.7 93 0.4 CALM 0 0 0 0 1031.0 1030.8 0.0
22/06:50am 3.4 1.8 2.4 93 0.4 CALM 0 0 0 0 1030.9 1030.6 0.0
22/06:30am 1.1 -0.9 0.1 93 0.4 CALM 0 0 0 0 1030.7 1030.4 0.0
22/06:21am 1.4 -0.5 0.4 93 0.4 CALM 0 0 0 0 1030.6 1030.3 0.0
22/06:00am 0.1 -2.0 -0.9 93 0.4 CALM 0 0 0 0 1030.5 1030.2 0.0
22/05:30am 0.6 -1.4 -0.4 93 0.4 CALM 0 0 0 0 1030.2 1029.9 0.0
22/05:03am 3.2 1.6 2.2 93 0.4 CALM 0 0 0 0 1029.8 1029.5 0.0
22/05:00am 2.9 1.2 1.9 93 0.4 CALM 0 2 0 1 1029.8 1029.5 0.0
22/04:48am 2.2 -0.7 1.2 93 0.4 SE 6 7 3 4 1029.6 1029.3 0.0
22/04:30am 2.0 -1.0 1.0 93 0.4 E 6 7 3 4 1029.4 1029.1 0.0
22/04:00am 1.9 -1.7 0.9 93 0.4 ENE 9 11 5 6 1029.1 1028.7 0.0
22/03:30am 0.2 -3.2 -0.8 93 0.4 E 7 9 4 5 1028.8 1028.5 0.0
22/03:06am 2.9 -0.5 1.9 93 0.4 NNE 9 9 5 5 1028.9 1028.6 0.0
22/03:01am 4.3 1.1 3.3 93 0.4 NNE 9 11 5 6 1028.9 1028.6 0.0
22/03:00am 4.3 1.1 3.3 93 0.4 NNE 9 11 5 6 1028.9 1028.6 0.0
22/02:42am 3.6 1.3 2.6 93 0.4 NE 4 9 2 5 1029.2 1028.8 0.0
22/02:34am 3.9 2.4 2.9 93 0.4 CALM 0 0 0 0 1029.2 1028.8 0.0
22/02:30am 3.9 2.4 2.9 93 0.4 CALM 0 0 0 0 1029.3 1029.0 0.0
22/02:14am 2.9 0.1 1.9 93 0.4 ENE 6 7 3 4 1029.3 1029.0 0.0
22/02:00am 4.9 2.2 3.9 93 0.4 ENE 7 7 4 4 1029.4 1029.1 0.0
22/01:30am 5.5 3.1 4.5 93 0.5 NNE 6 9 3 5 1029.6 1029.3 0.0
22/01:00am 4.7 2.2 3.7 93 0.4 ENE 6 7 3 4 1029.8 1029.5 0.0
22/12:30am 5.0 2.0 4.0 93 0.4 E 9 11 5 6 1030.0 1029.7 0.0
22/12:00am 5.2 3.9 3.9 91 0.6 CALM 0 7 0 4 1030.2 1029.9 0.0
 
Date/Time
EST
Temp
°C
App
Temp
°C
Dew
Point
Rel
Hum
%
Delta-T
°C
Wind Press
QNH
hPa
Press
MSL
hPa
Rain
since 9 am
mm
Dir
 
Spd
km/h
Gust
km/h
Spd
kts
Gust
kts
21/11:30pm 4.2 1.3 2.4 88 0.8 E 7 9 4 5 1030.0 1029.7 0.0
21/11:00pm 4.5 1.2 2.2 85 1.0 ENE 9 13 5 7 1029.9 1029.6 0.0
21/10:30pm 4.7 1.1 2.7 87 0.9 ENE 11 13 6 7 1030.0 1029.7 0.0
21/10:00pm 4.5 0.9 3.0 90 0.6 ESE 11 13 6 7 1030.0 1029.7 0.0
21/09:30pm 4.0 0.8 2.8 92 0.5 SE 9 11 5 6 1029.8 1029.5 0.0
21/09:00pm 4.8 1.4 1.8 81 1.3 SSW 9 11 5 6 1029.6 1029.3 0.0
21/08:30pm 5.4 2.6 3.4 87 0.9 SW 7 7 4 4 1029.4 1029.1 0.0
21/08:00pm 6.5 3.3 2.9 78 1.6 SW 9 11 5 6 1029.2 1028.8 0.0
21/07:30pm 8.2 5.2 3.9 74 2.0 WSW 9 11 5 6 1028.9 1028.6 0.0
21/07:00pm 9.4 7.2 5.2 75 2.0 SSW 6 7 3 4 1028.6 1028.3 0.0
21/06:30pm 8.3 5.8 4.5 77 1.8 SSW 7 9 4 5 1027.9 1027.5 0.0
21/06:00pm 9.0 6.0 4.2 72 2.2 S 9 13 5 7 1027.3 1026.9 0.0
21/05:30pm 12.2 8.9 4.4 59 3.7 S 11 15 6 8 1027.1 1026.7 0.0
21/05:00pm 13.6 10.1 3.4 50 4.8 S 11 15 6 8 1027.0 1026.6 0.0
21/04:30pm 14.2 10.6 3.1 47 5.3 S 11 19 6 10 1027.1 1026.7 0.0
21/04:00pm 14.4 10.9 1.3 41 5.9 S 9 17 5 9 1027.2 1026.8 0.0
21/03:30pm 14.4 11.1 -0.1 37 6.4 SE 7 17 4 9 1027.4 1027.1 0.0
21/03:00pm 14.7 11.5 2.9 45 5.6 SE 9 15 5 8 1027.4 1027.1 0.0
21/02:30pm 14.5 11.6 2.7 45 5.6 SSW 7 15 4 8 1027.7 1027.4 0.0
21/02:00pm 13.9 11.2 3.9 51 4.8 S 7 17 4 9 1028.1 1027.7 0.0
21/01:30pm 14.9 12.0 4.6 50 5.1 SSE 9 19 5 10 1028.3 1028.0 0.0
21/01:00pm 14.1 11.3 3.0 47 5.2 SE 7 11 4 6 1028.7 1028.4 0.0
21/12:30pm 13.8 9.9 3.3 49 5.0 SSE 13 20 7 11 1029.1 1028.7 0.0
21/12:00pm 13.6 10.6 3.9 52 4.6 SSE 9 17 5 9 1029.4 1029.1 0.0
21/11:30am 13.3 10.7 4.2 54 4.4 ESE 7 13 4 7 1029.7 1029.4 0.0
21/11:00am 13.2 10.6 4.4 55 4.2 SE 7 13 4 7 1030.0 1029.7 0.0
21/10:30am 12.6 9.7 4.8 59 3.8 NE 9 13 5 7 1030.3 1030.0 0.0
21/10:00am 11.8 8.2 5.2 64 3.2 NE 13 19 7 10 1030.4 1030.1 0.0
21/09:30am 10.8 6.9 5.3 69 2.7 NE 15 20 8 11 1030.2 1029.9 0.0
21/09:00am 9.7 5.7 4.9 72 2.3 NE 15 22 8 12 1029.9 1029.6 0.2
21/08:30am 9.1 5.6 5.5 78 1.7 NNE 13 22 7 12 1029.6 1029.3 0.2
21/08:00am 7.4 3.7 4.5 82 1.3 NE 13 15 7 8 1029.3 1029.0 0.2
21/07:30am 6.4 3.5 4.9 90 0.7 NE 9 11 5 6 1028.8 1028.5 0.2
21/07:00am 4.3 2.1 3.3 93 0.4 N 4 7 2 4 1028.5 1028.2 0.2
21/06:30am 3.2 0.2 2.2 93 0.4 NNW 7 7 4 4 1028.0 1027.6 0.0
21/06:00am 3.0 1.3 2.0 93 0.4 CALM 0 0 0 0 1027.6 1027.3 0.0
21/05:30am 2.6 0.9 1.6 93 0.4 CALM 0 0 0 0 1027.5 1027.2 0.0
21/05:00am 2.2 0.4 1.2 93 0.4 CALM 0 0 0 0 1027.2 1026.8 0.0
21/04:30am 2.8 1.1 1.8 93 0.4 CALM 0 6 0 3 1026.9 1026.5 0.0
21/04:00am 2.7 0.6 1.7 93 0.4 SE 2 7 1 4 1026.6 1026.3 0.0
21/03:30am 2.6 -0.5 1.6 93 0.4 ESE 7 7 4 4 1026.6 1026.3 0.0
21/03:00am 2.5 -0.6 1.5 93 0.4 E 7 11 4 6 1026.8 1026.4 0.0
21/02:30am 3.3 -0.8 2.3 93 0.4 E 13 17 7 9 1027.0 1026.6 0.0
21/02:00am 2.6 -1.2 1.6 93 0.4 E 11 13 6 7 1027.2 1026.8 0.0
21/01:30am 3.0 -0.8 2.0 93 0.4 ESE 11 15 6 8 1027.3 1026.9 0.0
21/01:00am 3.8 -0.2 2.8 93 0.4 E 13 15 7 8 1027.3 1026.9 0.0
21/12:30am 3.2 -0.5 2.2 93 0.4 E 11 13 6 7 1027.3 1026.9 0.0
21/12:00am 4.4 0.5 3.4 93 0.4 E 13 15 7 8 1027.2 1026.8 0.0
 
Date/Time
EST
Temp
°C
App
Temp
°C
Dew
Point
Rel
Hum
%
Delta-T
°C
Wind Press
QNH
hPa
Press
MSL
hPa
Rain
since 9 am
mm
Dir
 
Spd
km/h
Gust
km/h
Spd
kts
Gust
kts
20/11:30pm 4.9 0.3 3.9 93 0.4 E 17 20 9 11 1027.1 1026.7 0.0
20/11:00pm 4.8 0.2 3.8 93 0.4 ESE 17 20 9 11 1027.3 1026.9 0.0
20/10:30pm 4.7 1.2 3.4 91 0.6 SE 11 13 6 7 1027.2 1026.8 0.0
20/10:00pm 5.1 0.8 3.1 87 0.9 SE 15 15 8 8 1026.9 1026.5 0.0
20/09:30pm 5.0 1.6 1.8 80 1.4 SE 9 11 5 6 1026.9 1026.5 0.0
20/09:00pm 6.9 3.3 3.0 76 1.7 SSW 11 11 6 6 1026.5 1026.2 0.0
20/08:30pm 5.0 1.2 1.7 79 1.4 S 11 13 6 7 1026.3 1025.9 0.0
20/08:00pm 6.7 2.7 3.0 77 1.6 SSW 13 15 7 8 1026.0 1025.6 0.0
20/07:30pm 6.8 3.2 2.9 76 1.7 SSW 11 13 6 7 1025.8 1025.4 0.0
20/07:00pm 6.7 3.1 3.0 77 1.6 SSW 11 15 6 8 1025.3 1024.9 0.0
20/06:30pm 8.0 4.1 3.5 73 2.0 SSW 13 15 7 8 1025.0 1024.6 0.0

Other Formats:

Comma delimited format used in spreadsheet applications
http://www.bom.gov.au/fwo/IDN60801/IDN60801.95726.axf

JavaScript Object Notation format (JSON) in row-major order
http://www.bom.gov.au/fwo/IDN60801/IDN60801.95726.json